Forsyth, Montana
Current Conditions -  °F | °C
As of 9:53 AM on Friday 24 Oct 2014 (Local Time) from KMLS Reporting Station
Overcast Overcast  
Wind Chill: 53°   Ceiling: 11000
Heat Index: 53°   Visibility: 10mi
Dew Point: 37°   Wind: 5mph
Humidity: 55%   Direction: 220°SW
Pressure: 30.02"   Gusts: NA
Location:  46.27°N, 106.68°W
Report Text: KMLS 241553Z AUTO 22004KT 10SM OVC110 12/03 A3002 RMK AO2 SLP168 T01170028
Loading
Personal Weather Stations






























Interactive Weather Map
Tropical Storm Tracking
New forecast layout! Learn more

10-Day Weather Forecast

Advertisements
Track Severe Weather on mobile